NCAR-RAP Real-Time Weather Data

Output produced by METARs form (24 June 2017  17:28 UTC)
found at http://weather.rap.ucar.edu/surface/
 
Conditions at: KTYQ observed 24 June 2017  17:15 UTC
Temperature: 21.7°C (71°F)
Dewpoint: 14.7°C (58°F) [RH = 64%]
Pressure (altimeter): 30.03 inches Hg (1017.0 mb)
Winds: from the W (280 degrees) at 14 MPH (12 knots; 6.2 m/s)
gusting to 22 MPH (19 knots; 9.9 m/s)
Visibility: 10 or more miles (16+ km)
Ceiling: 7000 feet AGL
Clouds: scattered clouds at 3800 feet AGL
scattered clouds at 4600 feet AGL
broken clouds at 7000 feet AGL
Present Weather: automated observation with no human augmentation;
there may or may not be significant weather present at this time
KTYQ 241715Z AUTO 28012G19KT 10SM SCT038 SCT046 BKN070 22/15 A3003 RMK AO2 T02170147